createdAt,value
2023-01-08T00:01:21.682Z,7.57
2023-01-08T00:03:54.655Z,9.98
2023-01-08T00:06:27.683Z,8.40
2023-01-08T00:08:59.260Z,9.57
2023-01-08T00:11:40.768Z,10.82
2023-01-08T00:14:15.123Z,9.43
2023-01-08T00:16:46.690Z,9.38
2023-01-08T00:19:23.374Z,9.75
2023-01-08T00:21:55.467Z,8.77
2023-01-08T00:24:27.438Z,9.55
2023-01-08T00:27:04.244Z,9.00
2023-01-08T00:29:37.674Z,8.25
2023-01-08T00:32:15.319Z,13.23
2023-01-08T00:34:48.632Z,9.73
2023-01-08T00:37:20.860Z,8.38
2023-01-08T00:39:53.342Z,11.95
2023-01-08T00:42:28.233Z,8.95
2023-01-08T00:45:00.513Z,11.27
2023-01-08T00:47:32.735Z,9.32
2023-01-08T00:50:05.406Z,9.20
2023-01-08T00:53:04.749Z,9.05
2023-01-08T00:55:37.459Z,10.40
2023-01-08T00:58:12.211Z,8.88
2023-01-08T01:00:46.229Z,9.82
2023-01-08T01:03:18.702Z,9.43
2023-01-08T01:05:51.043Z,10.68
2023-01-08T01:08:22.853Z,9.85
2023-01-08T01:10:54.891Z,10.60
2023-01-08T01:13:31.835Z,9.75
2023-01-08T01:16:05.231Z,14.82
2023-01-08T01:18:37.152Z,12.88
2023-01-08T01:21:15.269Z,11.45
2023-01-08T01:23:49.893Z,9.48
2023-01-08T01:26:24.129Z,11.18
2023-01-08T01:29:00.438Z,9.18
2023-01-08T01:31:34.551Z,11.07
2023-01-08T01:34:08.683Z,9.98
2023-01-08T01:36:41.180Z,15.60
2023-01-08T01:39:12.988Z,9.80
2023-01-08T01:41:47.528Z,8.90
2023-01-08T01:44:40.708Z,11.48
2023-01-08T01:47:23.951Z,10.50
2023-01-08T01:50:07.499Z,11.45
2023-01-08T01:53:02.749Z,11.48
2023-01-08T01:55:35.505Z,13.85
2023-01-08T01:58:12.657Z,12.63
2023-01-08T02:00:47.739Z,11.65
2023-01-08T02:03:21.590Z,11.68
2023-01-08T02:05:58.348Z,11.07
2023-01-08T02:08:39.101Z,12.25
2023-01-08T02:11:14.437Z,11.07
2023-01-08T02:13:54.070Z,12.43
2023-01-08T02:16:38.440Z,12.55
2023-01-08T02:19:22.499Z,10.43
2023-01-08T02:22:06.060Z,11.27
2023-01-08T02:24:51.692Z,11.85
2023-01-08T02:27:29.480Z,11.50
2023-01-08T02:30:03.351Z,12.98
2023-01-08T02:32:40.808Z,13.27
2023-01-08T02:35:14.521Z,13.18
2023-01-08T02:37:46.958Z,12.95
2023-01-08T02:40:29.732Z,12.48
2023-01-08T02:43:12.393Z,13.13
2023-01-08T02:45:49.680Z,13.77
2023-01-08T02:48:32.671Z,15.15
2023-01-08T02:51:11.788Z,12.88
2023-01-08T02:53:48.186Z,12.60
2023-01-08T02:56:24.192Z,13.25
2023-01-08T02:59:01.930Z,12.43
2023-01-08T03:01:36.367Z,14.77
2023-01-08T03:04:15.640Z,13.65
2023-01-08T03:06:49.470Z,14.68
2023-01-08T03:09:22.260Z,12.25
2023-01-08T03:12:00.937Z,14.05
2023-01-08T03:14:40.570Z,14.73
2023-01-08T03:17:21.414Z,14.30
2023-01-08T03:19:56.999Z,15.25
2023-01-08T03:22:30.897Z,15.65
2023-01-08T03:25:03.772Z,15.13
2023-01-08T03:27:41.274Z,16.08
2023-01-08T03:30:18.088Z,13.93
2023-01-08T03:32:52.157Z,16.33
2023-01-08T03:35:27.842Z,16.98
2023-01-08T03:38:06.440Z,16.88
2023-01-08T03:40:44.191Z,15.23
2023-01-08T03:43:16.479Z,15.05
2023-01-08T03:45:53.571Z,13.95
2023-01-08T03:48:28.400Z,16.60
2023-01-08T03:51:00.411Z,16.15
2023-01-08T03:53:32.810Z,16.23
2023-01-08T03:56:04.791Z,15.43
2023-01-08T03:58:37.207Z,14.60
2023-01-08T04:01:12.182Z,15.75
2023-01-08T04:03:44.521Z,16.98
2023-01-08T04:06:16.440Z,19.48
2023-01-08T04:08:50.890Z,17.55
2023-01-08T04:11:23.279Z,17.08
2023-01-08T04:13:56.002Z,15.90
2023-01-08T04:16:31.924Z,15.93
2023-01-08T04:19:04.187Z,17.15
2023-01-08T04:21:36.111Z,15.65
2023-01-08T04:24:09.009Z,16.58
2023-01-08T04:26:41.119Z,14.77
2023-01-08T04:29:15.249Z,16.80
2023-01-08T04:31:50.082Z,17.73
2023-01-08T04:34:22.671Z,15.93
2023-01-08T04:36:54.660Z,21.85
2023-01-08T04:39:39.359Z,16.25
2023-01-08T04:42:11.511Z,14.95
2023-01-08T04:44:43.959Z,21.60
2023-01-08T04:47:18.899Z,15.60
2023-01-08T04:49:51.248Z,15.50
2023-01-08T04:52:23.489Z,15.57
2023-01-08T04:54:55.739Z,16.42
2023-01-08T04:57:28.045Z,17.88
2023-01-08T05:00:00.440Z,18.67
2023-01-08T05:02:35.502Z,15.65
2023-01-08T05:05:09.277Z,16.48
2023-01-08T05:07:41.438Z,15.88
2023-01-08T05:10:14.089Z,16.92
2023-01-08T05:12:46.408Z,16.58
2023-01-08T05:15:18.990Z,17.55
2023-01-08T05:18:01.840Z,19.67
2023-01-08T05:20:45.750Z,14.57
2023-01-08T05:23:17.888Z,17.70
2023-01-08T05:25:50.350Z,16.33
2023-01-08T05:31:09.305Z,16.33
2023-01-08T05:33:44.251Z,16.88
2023-01-08T05:36:16.597Z,15.77
2023-01-08T05:38:48.859Z,15.15
2023-01-08T05:41:21.240Z,15.80
2023-01-08T05:43:53.520Z,18.25
2023-01-08T05:46:25.835Z,19.33
2023-01-08T05:49:00.871Z,16.77
2023-01-08T05:51:33.081Z,14.50
2023-01-08T05:54:04.874Z,16.20
2023-01-08T05:56:37.011Z,16.02
2023-01-08T05:59:09.244Z,16.75
2023-01-08T06:01:41.240Z,13.63
2023-01-08T06:04:15.971Z,13.40
2023-01-08T06:06:48.138Z,12.65
2023-01-08T06:09:20.205Z,12.98
2023-01-08T06:11:53.549Z,11.07
2023-01-08T06:14:25.379Z,13.45
2023-01-08T06:16:58.126Z,12.15
2023-01-08T06:19:32.771Z,12.27
2023-01-08T06:22:04.720Z,11.13
2023-01-08T06:24:36.702Z,12.05
2023-01-08T06:27:08.920Z,10.52
2023-01-08T06:29:40.766Z,14.73
2023-01-08T06:32:12.839Z,13.00
2023-01-08T06:34:47.644Z,11.65
2023-01-08T06:37:19.740Z,12.18
2023-01-08T06:39:51.451Z,12.52
2023-01-08T06:42:23.491Z,12.95
2023-01-08T06:44:55.206Z,12.73
2023-01-08T06:47:27.380Z,12.15
2023-01-08T06:50:01.988Z,12.25
2023-01-08T06:52:34.330Z,12.55
2023-01-08T06:55:06.547Z,14.02
2023-01-08T06:57:41.790Z,11.18
2023-01-08T07:00:15.052Z,12.65
2023-01-08T07:02:47.351Z,12.35
2023-01-08T07:05:22.191Z,12.35
2023-01-08T07:07:54.519Z,10.65
2023-01-08T07:10:27.052Z,10.68
2023-01-08T07:12:59.141Z,10.48
2023-01-08T07:15:30.919Z,12.82
2023-01-08T07:18:03.009Z,12.25
2023-01-08T07:20:38.148Z,9.85
2023-01-08T07:23:13.100Z,10.27
2023-01-08T07:26:24.059Z,9.73
2023-01-08T07:28:56.498Z,13.05
2023-01-08T07:31:28.460Z,11.85
2023-01-08T07:34:46.659Z,13.75
2023-01-08T07:37:21.227Z,11.45
2023-01-08T07:39:53.686Z,13.18
2023-01-08T07:42:26.181Z,9.68
2023-01-08T07:45:13.537Z,10.88
2023-01-08T07:48:05.942Z,10.43
2023-01-08T07:50:41.532Z,12.68
2023-01-08T07:53:17.491Z,17.90
2023-01-08T07:55:49.840Z,12.43
2023-01-08T07:58:22.100Z,13.50
2023-01-08T08:00:54.644Z,10.27
2023-01-08T08:03:27.887Z,16.92
2023-01-08T08:06:02.765Z,11.60
2023-01-08T08:08:38.097Z,11.18
2023-01-08T08:11:10.391Z,12.18
2023-01-08T08:13:45.250Z,14.52
2023-01-08T08:16:17.717Z,14.93
2023-01-08T08:18:49.739Z,11.55
2023-01-08T08:21:23.635Z,12.38
2023-01-08T08:23:58.762Z,12.02
2023-01-08T08:26:31.032Z,13.35
2023-01-08T08:29:03.078Z,14.25
2023-01-08T08:31:35.865Z,12.18
2023-01-08T08:34:31.365Z,12.57
2023-01-08T08:37:03.946Z,11.45
2023-01-08T08:39:39.941Z,13.15
2023-01-08T08:42:12.589Z,13.23
2023-01-08T08:44:44.792Z,13.98
2023-01-08T08:47:17.472Z,12.68
2023-01-08T08:49:49.600Z,13.77
2023-01-08T08:52:54.214Z,13.32
2023-01-08T08:55:38.269Z,10.32
2023-01-08T08:58:13.505Z,11.10
2023-01-08T09:00:47.144Z,15.68
2023-01-08T09:03:19.925Z,13.93
2023-01-08T09:06:20.439Z,11.35
2023-01-08T09:08:52.879Z,12.70
2023-01-08T09:11:51.796Z,13.65
2023-01-08T09:14:24.423Z,13.00
2023-01-08T09:16:56.602Z,15.07
2023-01-08T09:19:29.019Z,15.55
2023-01-08T09:22:01.256Z,11.45
2023-01-08T09:24:34.211Z,11.30
2023-01-08T09:27:11.042Z,12.20
2023-01-08T09:29:43.670Z,11.77
2023-01-08T09:32:15.694Z,12.95
2023-01-08T09:34:48.332Z,13.48
2023-01-08T09:37:20.388Z,11.80
2023-01-08T09:40:01.638Z,11.45
2023-01-08T09:42:38.134Z,12.57
2023-01-08T09:45:23.697Z,12.05
2023-01-08T09:47:56.536Z,12.15
2023-01-08T09:50:32.331Z,14.13
2023-01-08T09:53:22.469Z,14.70
2023-01-08T09:56:12.563Z,11.85
2023-01-08T09:58:50.963Z,15.27
2023-01-08T10:01:26.518Z,12.40
2023-01-08T10:04:07.631Z,11.02
2023-01-08T10:06:39.964Z,12.60
2023-01-08T10:09:18.023Z,11.70
2023-01-08T10:11:53.451Z,11.57
2023-01-08T10:14:31.369Z,11.18
2023-01-08T10:17:11.527Z,14.90
2023-01-08T10:19:45.868Z,12.30
2023-01-08T10:22:29.863Z,13.13
2023-01-08T10:25:18.000Z,16.02
2023-01-08T10:27:54.707Z,13.82
2023-01-08T10:30:40.830Z,13.43
2023-01-08T10:33:24.788Z,13.40
2023-01-08T10:36:03.377Z,14.35
2023-01-08T10:38:41.578Z,15.27
2023-01-08T10:41:18.306Z,12.77
2023-01-08T10:44:00.465Z,13.77
2023-01-08T10:46:39.233Z,14.40
2023-01-08T10:49:28.267Z,16.95
2023-01-08T10:52:00.157Z,17.33
2023-01-08T10:54:40.983Z,18.10
2023-01-08T10:57:25.039Z,13.07
2023-01-08T11:00:03.411Z,14.15
2023-01-08T11:02:50.594Z,16.92
2023-01-08T11:05:25.736Z,14.57
2023-01-08T11:08:09.798Z,14.60
2023-01-08T11:10:41.706Z,16.63
2023-01-08T11:13:23.233Z,14.85
2023-01-08T11:16:07.239Z,14.75
2023-01-08T11:18:48.476Z,16.48
2023-01-08T11:21:27.560Z,17.60
2023-01-08T11:24:18.536Z,14.32
2023-01-08T11:26:57.908Z,16.35
2023-01-08T11:29:42.379Z,15.43
2023-01-08T11:32:32.664Z,20.60
2023-01-08T11:35:18.391Z,25.15
2023-01-08T11:37:58.703Z,25.42
2023-01-08T11:40:43.520Z,15.48
2023-01-08T11:43:29.023Z,14.00
2023-01-08T11:46:19.555Z,14.52
2023-01-08T11:49:29.137Z,13.13
2023-01-08T11:52:21.139Z,15.50
2023-01-08T11:55:12.593Z,13.07
2023-01-08T11:57:58.513Z,16.08
2023-01-08T12:00:45.323Z,14.35
2023-01-08T12:03:33.276Z,13.30
2023-01-08T12:06:16.713Z,14.15
2023-01-08T12:09:04.857Z,14.27
2023-01-08T12:11:44.376Z,13.98
2023-01-08T12:14:47.272Z,14.95
2023-01-08T12:17:58.980Z,14.65
2023-01-08T12:20:40.604Z,15.32
2023-01-08T12:23:29.176Z,15.07
2023-01-08T12:26:20.971Z,12.23
2023-01-08T12:29:22.830Z,14.40
2023-01-08T12:32:18.456Z,11.43
2023-01-08T12:34:59.059Z,11.27
2023-01-08T12:37:36.605Z,12.70
2023-01-08T12:40:18.473Z,13.48
2023-01-08T12:43:00.444Z,14.32
2023-01-08T12:45:38.572Z,15.60
2023-01-08T12:48:14.309Z,14.40
2023-01-08T12:50:57.061Z,14.38
2023-01-08T12:53:40.865Z,12.75
2023-01-08T12:56:20.478Z,12.25
2023-01-08T12:59:10.485Z,14.00
2023-01-08T13:01:50.952Z,13.98
2023-01-08T13:04:23.605Z,15.10
2023-01-08T13:07:03.453Z,13.52
2023-01-08T13:09:36.463Z,14.43
2023-01-08T13:12:09.262Z,15.27
2023-01-08T13:14:51.309Z,13.38
2023-01-08T13:17:27.669Z,15.80
2023-01-08T13:20:04.564Z,13.68
2023-01-08T13:22:39.185Z,14.38
2023-01-08T13:25:27.958Z,15.35
2023-01-08T13:28:00.819Z,16.20
2023-01-08T13:30:49.410Z,38.03
2023-01-08T13:33:40.863Z,15.45
2023-01-08T13:36:46.505Z,17.42
2023-01-08T13:39:26.643Z,16.83
2023-01-08T13:42:07.406Z,17.33
2023-01-08T13:44:44.581Z,16.23
2023-01-08T13:47:31.001Z,15.68
2023-01-08T13:50:08.049Z,15.82
2023-01-08T13:52:46.593Z,18.08
2023-01-08T13:55:23.383Z,14.85
2023-01-08T13:57:59.173Z,16.67
2023-01-08T14:00:35.162Z,20.70
2023-01-08T14:03:24.185Z,17.13
2023-01-08T14:06:12.450Z,19.48
2023-01-08T14:08:53.645Z,18.23
2023-01-08T14:11:29.432Z,17.85
2023-01-08T14:14:01.642Z,16.77
2023-01-08T14:16:34.384Z,18.17
2023-01-08T14:19:09.183Z,16.25
2023-01-08T14:21:41.570Z,17.50
2023-01-08T14:24:19.573Z,17.52
2023-01-08T14:26:56.672Z,19.75
2023-01-08T14:29:31.124Z,16.15
2023-01-08T14:32:04.744Z,15.68
2023-01-08T14:34:43.025Z,18.42
2023-01-08T14:37:17.671Z,18.42
2023-01-08T14:39:54.532Z,16.83
2023-01-08T14:42:50.643Z,17.75
2023-01-08T14:45:26.192Z,16.30
2023-01-08T14:48:02.867Z,17.17
2023-01-08T14:50:40.202Z,19.45
2023-01-08T14:53:23.356Z,19.25
2023-01-08T14:55:57.636Z,17.83
2023-01-08T14:58:33.000Z,18.58
2023-01-08T15:01:09.708Z,16.65
2023-01-08T15:03:44.465Z,18.52
2023-01-08T15:06:29.622Z,18.40
2023-01-08T15:09:02.941Z,18.35
2023-01-08T15:11:38.441Z,22.45
2023-01-08T15:14:23.490Z,20.90
2023-01-08T15:16:57.462Z,21.70
2023-01-08T15:19:32.221Z,22.23
2023-01-08T15:22:07.018Z,20.65
2023-01-08T15:24:41.666Z,21.63
2023-01-08T15:27:22.606Z,23.52
2023-01-08T15:30:00.587Z,25.05
2023-01-08T15:32:37.492Z,20.05
2023-01-08T15:35:17.667Z,22.98
2023-01-08T15:37:52.310Z,21.33
2023-01-08T15:40:24.420Z,24.73
2023-01-08T15:43:08.605Z,24.85
2023-01-08T15:45:42.732Z,21.63
2023-01-08T15:48:17.001Z,24.02
2023-01-08T15:50:49.415Z,22.92
2023-01-08T15:53:25.659Z,24.48
2023-01-08T15:55:58.368Z,20.55
2023-01-08T15:58:30.505Z,21.70
2023-01-08T16:01:03.067Z,24.30
2023-01-08T16:03:35.198Z,23.65
2023-01-08T16:06:09.937Z,20.42
2023-01-08T16:08:46.639Z,25.88
2023-01-08T16:11:20.891Z,21.27
2023-01-08T16:13:53.216Z,22.30
2023-01-08T16:16:41.615Z,20.63
2023-01-08T16:19:14.760Z,22.65
2023-01-08T16:21:48.665Z,22.92
2023-01-08T16:24:23.713Z,21.90
2023-01-08T16:26:56.627Z,21.17
2023-01-08T16:29:29.221Z,22.23
2023-01-08T16:32:02.138Z,23.42
2023-01-08T16:34:34.102Z,21.23
2023-01-08T16:37:06.904Z,24.00
2023-01-08T16:39:41.633Z,21.10
2023-01-08T16:42:13.884Z,23.02
2023-01-08T16:44:45.763Z,21.70
2023-01-08T16:47:18.420Z,23.15
2023-01-08T16:49:50.640Z,18.83
2023-01-08T16:52:23.090Z,21.02
2023-01-08T16:54:57.668Z,19.17
2023-01-08T16:57:36.102Z,22.05
2023-01-08T17:00:09.349Z,21.92
2023-01-08T17:02:41.543Z,19.02
2023-01-08T17:05:13.734Z,19.90
2023-01-08T17:07:45.921Z,20.58
2023-01-08T17:10:22.970Z,20.65
2023-01-08T17:12:55.322Z,20.58
2023-01-08T17:15:27.442Z,22.73
2023-01-08T17:17:59.785Z,21.10
2023-01-08T17:20:32.123Z,21.92
2023-01-08T17:23:04.481Z,19.58
2023-01-08T17:25:50.547Z,20.58
2023-01-08T17:28:25.379Z,19.67
2023-01-08T17:31:01.689Z,18.33
2023-01-08T17:33:35.365Z,19.40
2023-01-08T17:36:14.177Z,17.20
2023-01-08T17:38:55.234Z,20.05
2023-01-08T17:41:41.832Z,18.48
2023-01-08T17:44:16.281Z,19.85
2023-01-08T17:46:47.945Z,18.85
2023-01-08T17:49:20.857Z,18.48
2023-01-08T17:51:53.756Z,22.70
2023-01-08T17:57:22.048Z,25.77
2023-01-08T17:59:59.023Z,20.25
2023-01-08T18:02:36.543Z,20.27
2023-01-08T18:05:11.529Z,21.02
2023-01-08T18:07:43.080Z,19.63
2023-01-08T18:10:15.603Z,21.10
2023-01-08T18:12:51.279Z,19.73
2023-01-08T18:15:31.153Z,19.55
2023-01-08T18:18:03.569Z,21.67
2023-01-08T18:20:35.866Z,21.38
2023-01-08T18:23:07.920Z,18.90
2023-01-08T18:25:43.440Z,18.35
2023-01-08T18:28:18.142Z,25.70
2023-01-08T18:30:50.456Z,19.17
2023-01-08T18:33:23.302Z,19.83
2023-01-08T18:35:55.842Z,17.00
2023-01-08T18:38:28.106Z,16.70
2023-01-08T18:41:01.931Z,15.93
2023-01-08T18:43:38.352Z,20.27
2023-01-08T18:46:11.570Z,18.00
2023-01-08T18:48:43.942Z,17.15
2023-01-08T18:51:16.342Z,16.63
2023-01-08T18:53:48.542Z,19.50
2023-01-08T18:56:25.284Z,16.85
2023-01-08T18:59:01.181Z,20.13
2023-01-08T19:01:34.089Z,18.42
2023-01-08T19:04:07.209Z,17.30
2023-01-08T19:06:39.862Z,18.75
2023-01-08T19:09:12.222Z,19.95
2023-01-08T19:11:45.622Z,20.55
2023-01-08T19:14:20.830Z,17.65
2023-01-08T19:16:53.616Z,19.65
2023-01-08T19:19:25.945Z,19.40
2023-01-08T19:21:59.021Z,20.92
2023-01-08T19:24:41.411Z,21.95
2023-01-08T19:27:13.980Z,22.30
2023-01-08T19:29:49.165Z,19.15
2023-01-08T19:32:21.282Z,21.35
2023-01-08T19:34:53.903Z,20.00
2023-01-08T19:37:26.720Z,20.90
2023-01-08T19:40:01.860Z,22.35
2023-01-08T19:42:46.402Z,19.45
2023-01-08T19:45:22.190Z,21.90
2023-01-08T19:47:56.667Z,20.42
2023-01-08T19:50:30.821Z,21.25
2023-01-08T19:53:03.780Z,19.55
2023-01-08T19:55:38.083Z,22.83
2023-01-08T19:58:10.300Z,19.95
2023-01-08T20:00:45.089Z,19.67
2023-01-08T20:03:17.941Z,20.60
2023-01-08T20:05:50.003Z,21.35
2023-01-08T20:08:24.923Z,19.15
2023-01-08T20:10:57.029Z,20.52
2023-01-08T20:13:29.081Z,20.48
2023-01-08T20:16:03.821Z,21.92
2023-01-08T20:18:36.579Z,23.10
2023-01-08T20:21:10.965Z,21.10
2023-01-08T20:23:43.083Z,20.85
2023-01-08T20:26:18.311Z,22.23
2023-01-08T20:28:50.762Z,23.77
2023-01-08T20:31:29.734Z,22.88
2023-01-08T20:34:03.744Z,24.50
2023-01-08T20:36:37.253Z,26.75
2023-01-08T20:39:11.320Z,24.10
2023-01-08T20:41:50.079Z,25.55
2023-01-08T20:44:33.032Z,27.48
2023-01-08T20:47:07.680Z,27.83
2023-01-08T20:49:40.122Z,27.52
2023-01-08T20:52:12.242Z,25.33
2023-01-08T20:54:44.260Z,28.83
2023-01-08T20:57:15.984Z,29.15
2023-01-08T20:59:48.159Z,29.50
2023-01-08T21:02:22.893Z,30.77
2023-01-08T21:04:55.791Z,27.88
2023-01-08T21:07:30.220Z,29.98
2023-01-08T21:10:02.172Z,29.48
2023-01-08T21:12:37.920Z,28.33
2023-01-08T21:15:13.755Z,28.05
2023-01-08T21:17:49.181Z,25.85
2023-01-08T21:20:22.972Z,28.95
2023-01-08T21:22:54.762Z,27.60
2023-01-08T21:25:26.887Z,28.58
2023-01-08T21:27:58.800Z,31.73
2023-01-08T21:30:31.343Z,28.05
2023-01-08T21:33:06.092Z,29.38
2023-01-08T21:35:39.142Z,27.88
2023-01-08T21:38:11.362Z,27.27
2023-01-08T21:40:45.080Z,26.27
2023-01-08T21:43:29.723Z,26.75
2023-01-08T21:46:05.144Z,28.70
2023-01-08T21:48:40.001Z,30.58
2023-01-08T21:51:32.922Z,25.25
2023-01-08T21:54:02.325Z,27.40
2023-01-08T21:56:34.944Z,24.30
2023-01-08T21:59:07.120Z,24.90
2023-01-08T22:01:39.757Z,29.25
2023-01-08T22:04:14.862Z,25.25
2023-01-08T22:06:47.790Z,20.98
2023-01-08T22:09:20.141Z,30.25
2023-01-08T22:11:52.323Z,22.70
2023-01-08T22:14:24.422Z,24.40
2023-01-08T22:16:56.862Z,24.63
2023-01-08T22:19:31.704Z,24.08
2023-01-08T22:22:03.961Z,23.63
2023-01-08T22:24:36.120Z,23.42
2023-01-08T22:27:08.518Z,21.80
2023-01-08T22:29:41.001Z,22.30
2023-01-08T22:32:13.037Z,19.73
2023-01-08T22:34:47.624Z,20.75
2023-01-08T22:37:22.143Z,21.35
2023-01-08T22:39:54.661Z,19.45
2023-01-08T22:42:27.322Z,22.42
2023-01-08T22:44:59.623Z,21.85
2023-01-08T22:47:31.788Z,17.70
2023-01-08T22:50:06.621Z,21.15
2023-01-08T22:52:39.004Z,19.38
2023-01-08T22:58:00.985Z,17.65
2023-01-08T23:00:33.120Z,21.92
2023-01-08T23:03:13.982Z,21.17
2023-01-08T23:05:49.161Z,20.42
2023-01-08T23:08:21.382Z,17.50
2023-01-08T23:10:57.681Z,19.48
2023-01-08T23:13:29.822Z,17.42
2023-01-08T23:16:01.952Z,19.92
2023-01-08T23:18:34.464Z,19.30
2023-01-08T23:21:10.745Z,18.65
2023-01-08T23:23:43.263Z,19.88
2023-01-08T23:26:19.025Z,18.55
2023-01-08T23:28:52.266Z,21.52
2023-01-08T23:31:26.754Z,19.73
2023-01-08T23:33:59.084Z,17.60
2023-01-08T23:36:34.066Z,19.85
2023-01-08T23:39:06.934Z,21.55
2023-01-08T23:41:39.132Z,22.92
2023-01-08T23:44:14.177Z,24.80
2023-01-08T23:46:46.227Z,24.42
2023-01-08T23:49:18.523Z,25.50
2023-01-08T23:51:53.142Z,24.98
2023-01-08T23:54:25.662Z,26.42
2023-01-08T23:56:58.104Z,26.15
2023-01-08T23:59:30.427Z,26.15
